Westwood, Kentucky
Current Conditions -  °F | °C
As of 12:51 AM on Monday 26 Jan 2015 (Local Time) from KHTS Reporting Station
Light Rain Light Rain  
Wind Chill: 36°   Ceiling: 3800
Heat Index: 40°   Visibility: 5mi
Dew Point: 39°   Wind: 6mph
Humidity: 97%   Direction: 60°ENE
Pressure: 29.64"   Gusts: NA
Location:  38.4744°N, 82.6532°W
Report Text: KHTS 260551Z 06005KT 5SM -RA BR OVC038 04/04 A2964 RMK AO2 SLP040 P0003 60016 T00440039 10056 20039 57020
Loading
Personal Weather Stations






























Interactive Weather Map New forecast layout! Learn more

10-Day Weather Forecast

Advertisements
Track Severe Weather on mobile